Flight Track Log - Related Links

Times and Time Zones

All times are in EDT time to prevent confusion due to time zone crossing. See the AAL270 flight status page for this flight to view local times or setup timezone preferences in your user account.


Time Position Orientation Groundspeed Altitude Reporting Facility
EDT Latitude Longitude Course Direction KTS MPH feet Rate Location/Type
Sat 01:23:47 PM 21.3167 -157.9000 75° East 170 196 1,300  Level Honolulu Center
Sat 01:24:47 PM 21.2667 -157.8667 148° Southeast 240 276 2,900 1,900 Climbing Honolulu Center
Sat 01:25:47 PM 21.2167 -157.8167 137° Southeast 260 299 5,100 2,300 Climbing Honolulu Center
Sat 01:26:00 PM 21.2135 -157.5283 108° East  Level FlightAware Approximate
Sat 01:26:47 PM 21.1833 -157.7500 118° Southeast 280 322 7,500  Level Honolulu Center
Sat 01:27:00 PM 21.1830 -157.3979 100° East  Level FlightAware Approximate
Sat 01:27:48 PM 21.1667 -157.6667 102° East 280 322 9,700  Level Honolulu Center
Sat 01:28:00 PM 21.1582 -157.2661 105° East  Level FlightAware Approximate
Sat 01:28:48 PM 21.1833 -157.5833 78° East 310 357 11,000  Level Honolulu Center
Sat 01:29:00 PM 21.1410 -157.1361 75° East  Level FlightAware Approximate
Sat 01:29:48 PM 21.2000 -157.4833 80° East 350 403 12,700  Level Honolulu Center
Sat 01:30:48 PM 21.2333 -157.3667 73° East 370 426 14,400 1,850 Climbing Honolulu Center
Sat 01:31:48 PM 21.2500 -157.2667 80° East 380 437 16,400 1,750 Climbing Honolulu Center
Sat 01:32:48 PM 21.2833 -157.1500 73° East 400 460 17,900 1,650 Climbing Honolulu Center
Sat 01:33:48 PM 21.3000 -157.0333 81° East 410 472 19,700 1,750 Climbing Honolulu Center
Sat 01:34:48 PM 21.3333 -156.9000 75° East 420 483 21,400 1,600 Climbing Honolulu Center
Sat 01:35:48 PM 21.3667 -156.7833 73° East 430 495 22,900 1,488 Climbing Honolulu Center
Sat 01:36:49 PM 21.3833 -156.6500 82° East 440 506 24,400 1,438 Climbing Honolulu Center
Sat 01:37:49 PM 21.4167 -156.5167 75° East 440 506 25,800 1,350 Climbing Honolulu Center
Sat 01:38:49 PM 21.4500 -156.3833 75° East 460 529 27,100 1,400 Climbing Honolulu Center
Sat 01:39:49 PM 21.4667 -156.2500 82° East 460 529 28,600 1,450 Climbing Honolulu Center
Sat 01:40:49 PM 21.5000 -156.1167 75° East 470 541 30,000 1,550 Climbing Honolulu Center
Sat 01:41:49 PM 21.5333 -155.9667 77° East 470 541 31,700 1,550 Climbing Honolulu Center
Sat 01:42:49 PM 21.5667 -155.8333 75° East 470 541 33,100 1,350 Climbing Honolulu Center
Sat 01:43:49 PM 21.5833 -155.7000 82° East 460 529 34,400 1,200 Climbing Honolulu Center
Sat 01:44:49 PM 21.6167 -155.5667 75° East 460 529 35,500 1,050 Climbing Honolulu Center
Sat 01:45:49 PM 21.6500 -155.4333 75° East 460 529 36,500 750 Climbing Honolulu Center
Sat 01:46:49 PM 21.6667 -155.3000 82° East 460 529 37,000 248 Climbing Honolulu Center
Sat 01:47:50 PM 21.7000 -155.1667 75° East 460 529 37,000  Level Honolulu Center
Sat 01:48:50 PM 21.7333 -155.0333 75° East 460 529 37,000  Level Honolulu Center
Sat 01:49:50 PM 21.7500 -154.9000 82° East 450 518 37,000  Level Honolulu Center
Sat 01:50:50 PM 21.7833 -154.7667 75° East 450 518 37,000  Level Honolulu Center
Sat 01:51:50 PM 21.8000 -154.6333 82° East 450 518 37,000  Level Honolulu Center
Sat 01:52:50 PM 21.8333 -154.5167 73° East 440 506 37,000  Level Honolulu Center
Sat 01:53:50 PM 21.8500 -154.3833 82° East 450 518 37,000  Level Honolulu Center
Sat 01:54:51 PM 21.8833 -154.2500 75° East 440 506 37,000  Level Honolulu Center
Sat 01:55:51 PM 21.9167 -154.1167 75° East 440 506 37,000  Level Honolulu Center
Sat 01:56:51 PM 21.9333 -154.0000 81° East 440 506 37,000  Level Honolulu Center
Sat 01:58:00 PM 21.9636 -153.8472 78° East  Level FlightAware Approximate
Sat 02:05:00 PM 22.1451 -152.9158 78° East  Level FlightAware Approximate
Sat 02:06:00 PM 22.1706 -152.7825 78° East  Level FlightAware Approximate
Sat 02:07:00 PM 22.1960 -152.6492 78° East  Level FlightAware Approximate
Sat 02:08:00 PM 22.2212 -152.5159 78° East  Level FlightAware Approximate
Sat 02:09:00 PM 22.2464 -152.3824 78° East  Level FlightAware Approximate
Sat 02:10:00 PM 22.2715 -152.2490 79° East  Level FlightAware Approximate
Sat 02:11:00 PM 22.2964 -152.1155 79° East  Level FlightAware Approximate
Sat 02:12:00 PM 22.3212 -151.9820 79° East  Level FlightAware Approximate
Sat 02:13:00 PM 22.3492 -151.8513 62° Northeast  Level FlightAware Approximate
Sat 02:14:00 PM 22.4088 -151.7312 62° Northeast  Level FlightAware Approximate
Sat 02:14:08 PM 22.3500 -151.8833 62° Northeast 452 520 37,000  Level Oakland Oceanic (ODAPS)
Sat 02:15:00 PM 22.4683 -151.6110 62° Northeast  Level FlightAware Approximate
Sat 02:16:00 PM 22.5277 -151.4907 62° Northeast  Level FlightAware Approximate
Sat 02:17:00 PM 22.5870 -151.3703 62° Northeast  Level FlightAware Approximate
Sat 02:18:00 PM 22.6452 -151.2493 62° Northeast  Level FlightAware Approximate
Sat 02:19:00 PM 22.7032 -151.1281 63° Northeast  Level FlightAware Approximate
Sat 02:20:00 PM 22.8179 -150.9224 62° Northeast 452 520 37,000  Level FlightAware Transoceanic
Sat 02:21:00 PM 22.8760 -150.8018 62° Northeast 452 520 37,000  Level FlightAware Transoceanic
Sat 02:22:00 PM 22.9340 -150.6811 62° Northeast 452 520 37,000  Level FlightAware Transoceanic
Sat 02:23:00 PM 22.9919 -150.5603 63° Northeast 452 520 37,000  Level FlightAware Transoceanic
Sat 02:24:00 PM 23.0498 -150.4395 63° Northeast 452 520 37,000  Level FlightAware Transoceanic
Sat 02:25:00 PM 23.1075 -150.3185 63° Northeast 452 520 37,000  Level FlightAware Transoceanic
Sat 02:26:00 PM 23.1651 -150.1974 63° Northeast 452 520 37,000  Level FlightAware Transoceanic
Sat 02:27:00 PM 23.2227 -150.0762 63° Northeast 452 520 37,000  Level FlightAware Transoceanic
Sat 02:28:00 PM 23.2801 -149.9549 63° Northeast 452 520 37,000  Level FlightAware Transoceanic
Sat 02:29:00 PM 23.3375 -149.8335 63° Northeast 452 520 37,000  Level FlightAware Transoceanic
Sat 02:30:00 PM 23.3947 -149.7119 63° Northeast 452 520 37,000  Level FlightAware Transoceanic
Sat 02:31:00 PM 23.4519 -149.5903 63° Northeast 452 520 37,000  Level FlightAware Transoceanic
Sat 02:32:00 PM 23.5089 -149.4686 63° Northeast 452 520 37,000  Level FlightAware Transoceanic
Sat 02:33:00 PM 23.5659 -149.3468 63° Northeast 452 520 37,000  Level FlightAware Transoceanic
Sat 02:34:00 PM 23.6228 -149.2248 63° Northeast 452 520 37,000  Level FlightAware Transoceanic
Sat 02:35:00 PM 23.6796 -149.1028 63° Northeast 452 520 37,000  Level FlightAware Transoceanic
Sat 02:36:00 PM 23.7363 -148.9806 63° Northeast 452 520 37,000  Level FlightAware Transoceanic
Sat 02:37:00 PM 23.7929 -148.8584 63° Northeast 452 520 37,000  Level FlightAware Transoceanic
Sat 02:38:00 PM 23.8494 -148.7360 63° Northeast 452 520 37,000  Level FlightAware Transoceanic
Sat 02:39:00 PM 23.9058 -148.6136 63° Northeast 452 520 37,000  Level FlightAware Transoceanic
Sat 02:40:00 PM 23.9621 -148.4910 63° Northeast 452 520 37,000  Level FlightAware Transoceanic
Sat 02:41:00 PM 24.0183 -148.3683 63° Northeast 452 520 37,000  Level FlightAware Transoceanic
Sat 02:42:00 PM 24.0744 -148.2455 63° Northeast 452 520 37,000  Level FlightAware Transoceanic
Sat 02:43:00 PM 24.1304 -148.1226 63° Northeast 452 520 37,000  Level FlightAware Transoceanic
Sat 02:44:00 PM 24.1863 -147.9996 64° Northeast 452 520 37,000  Level FlightAware Transoceanic
Sat 02:45:00 PM 24.2421 -147.8765 64° Northeast 452 520 37,000  Level FlightAware Transoceanic
Sat 02:46:00 PM 24.2978 -147.7533 64° Northeast 452 520 37,000  Level FlightAware Transoceanic
Sat 02:47:00 PM 24.3535 -147.6299 64° Northeast 452 520 37,000  Level FlightAware Transoceanic
Sat 02:48:00 PM 24.4090 -147.5065 64° Northeast 452 520 37,000  Level FlightAware Transoceanic
Sat 02:49:00 PM 24.4644 -147.3830 64° Northeast 452 520 37,000  Level FlightAware Transoceanic
Sat 02:50:00 PM 24.5197 -147.2593 64° Northeast 452 520 37,000  Level FlightAware Transoceanic
Sat 02:51:00 PM 24.5749 -147.1355 64° Northeast 452 520 37,000  Level FlightAware Transoceanic
Sat 02:52:00 PM 24.6300 -147.0117 64° Northeast 452 520 37,000  Level FlightAware Transoceanic
Sat 02:53:00 PM 24.6850 -146.8877 64° Northeast 452 520 37,000  Level FlightAware Transoceanic
Sat 02:54:00 PM 24.7399 -146.7636 64° Northeast 452 520 37,000  Level FlightAware Transoceanic
Sat 02:55:00 PM 24.7947 -146.6394 64° Northeast 452 520 37,000  Level FlightAware Transoceanic
Sat 02:56:00 PM 24.8494 -146.5151 64° Northeast 452 520 37,000  Level FlightAware Transoceanic
Sat 02:57:00 PM 24.9040 -146.3907 64° Northeast 452 520 37,000  Level FlightAware Transoceanic
Sat 02:58:00 PM 24.9585 -146.2662 64° Northeast 452 520 37,000  Level FlightAware Transoceanic
Sat 02:59:00 PM 25.0129 -146.1415 64° Northeast 452 520 37,000  Level FlightAware Transoceanic
Sat 03:00:00 PM 25.0672 -146.0168 64° Northeast 452 520 37,000  Level FlightAware Transoceanic
Sat 03:01:00 PM 25.1214 -145.8919 64° Northeast 452 520 37,000  Level FlightAware Transoceanic
Sat 03:02:00 PM 25.1755 -145.7669 64° Northeast 452 520 37,000  Level FlightAware Transoceanic
Sat 03:03:00 PM 25.2295 -145.6419 65° Northeast 452 520 37,000  Level FlightAware Transoceanic
Sat 03:04:00 PM 25.2833 -145.5167 65° Northeast 452 520 37,000  Level FlightAware Transoceanic
Sat 03:05:00 PM 25.3390 -145.3863 65° Northeast 452 520 37,000 550 Level FlightAware Transoceanic
Sat 03:05:49 PM 25.2833 -145.5167 65° Northeast 468 539 38,000  Climbing Oakland Oceanic (ODAPS)
Sat 03:06:00 PM 25.3945 -145.2559 65° Northeast 452 520 37,000 -845 Descending FlightAware Transoceanic
Sat 03:07:00 PM 25.4499 -145.1253 65° Northeast 452 520 37,000  Level FlightAware Transoceanic
Sat 03:08:00 PM 25.5052 -144.9946 65° Northeast 452 520 37,000  Level FlightAware Transoceanic
Sat 03:09:00 PM 25.5604 -144.8637 65° Northeast 452 520 37,000  Level FlightAware Transoceanic
Sat 03:10:00 PM 25.6154 -144.7328 65° Northeast 452 520 37,000  Level FlightAware Transoceanic
Sat 03:11:00 PM 25.6703 -144.6017 65° Northeast 452 520 37,000 500 Level FlightAware Transoceanic
Sat 03:12:00 PM 25.7799 -144.3392 65° Northeast 468 539 38,000 500 Climbing FlightAware Transoceanic
Sat 03:13:00 PM 25.8345 -144.2078 65° Northeast 468 539 38,000  Level FlightAware Transoceanic
Sat 03:14:00 PM 25.8889 -144.0762 65° Northeast 468 539 38,000  Level FlightAware Transoceanic
Sat 03:15:00 PM 25.9433 -143.9446 65° Northeast 468 539 38,000  Level FlightAware Transoceanic
Sat 03:16:00 PM 25.9975 -143.8128 65° Northeast 468 539 38,000  Level FlightAware Transoceanic
Sat 03:17:00 PM 26.0516 -143.6809 65° Northeast 468 539 38,000  Level FlightAware Transoceanic
Sat 03:18:00 PM 26.1056 -143.5488 66° East 468 539 38,000  Level FlightAware Transoceanic
Sat 03:19:00 PM 26.1595 -143.4167 66° East 468 539 38,000  Level FlightAware Transoceanic
Sat 03:20:00 PM 26.2132 -143.2844 66° East 468 539 38,000  Level FlightAware Transoceanic
Sat 03:21:00 PM 26.2669 -143.1520 66° East 468 539 38,000  Level FlightAware Transoceanic
Sat 03:22:00 PM 26.3204 -143.0195 66° East 468 539 38,000  Level FlightAware Transoceanic
Sat 03:23:00 PM 26.3738 -142.8868 66° East 468 539 38,000  Level FlightAware Transoceanic
Sat 03:24:00 PM 26.4270 -142.7540 66° East 468 539 38,000  Level FlightAware Transoceanic
Sat 03:25:00 PM 26.4802 -142.6212 66° East 468 539 38,000  Level FlightAware Transoceanic
Sat 03:26:00 PM 26.5332 -142.4881 66° East 468 539 38,000  Level FlightAware Transoceanic
Sat 03:27:00 PM 26.5861 -142.3550 66° East 468 539 38,000  Level FlightAware Transoceanic
Sat 03:28:00 PM 26.6389 -142.2217 66° East 468 539 38,000  Level FlightAware Transoceanic
Sat 03:29:00 PM 26.6915 -142.0884 66° East 468 539 38,000  Level FlightAware Transoceanic
Sat 03:30:00 PM 26.7440 -141.9548 66° East 468 539 38,000  Level FlightAware Transoceanic
Sat 03:31:00 PM 26.7964 -141.8212 66° East 468 539 38,000  Level FlightAware Transoceanic
Sat 03:32:00 PM 26.8487 -141.6875 66° East 468 539 38,000  Level FlightAware Transoceanic
Sat 03:33:00 PM 26.9008 -141.5536 66° East 468 539 38,000  Level FlightAware Transoceanic
Sat 03:34:00 PM 26.9529 -141.4196 67° East 468 539 38,000  Level FlightAware Transoceanic
Sat 03:35:00 PM 27.0047 -141.2855 67° East 468 539 38,000  Level FlightAware Transoceanic
Sat 03:36:00 PM 27.0565 -141.1512 67° East 468 539 38,000  Level FlightAware Transoceanic
Sat 03:37:00 PM 27.1082 -141.0168 67° East 468 539 38,000  Level FlightAware Transoceanic
Sat 03:38:00 PM 27.1597 -140.8824 67° East 468 539 38,000  Level FlightAware Transoceanic
Sat 03:39:00 PM 27.2110 -140.7477 67° East 468 539 38,000  Level FlightAware Transoceanic
Sat 03:40:00 PM 27.2623 -140.6130 67° East 468 539 38,000  Level FlightAware Transoceanic
Sat 03:41:00 PM 27.3134 -140.4781 67° East 468 539 38,000  Level FlightAware Transoceanic
Sat 03:42:00 PM 27.3644 -140.3431 67° East 468 539 38,000  Level FlightAware Transoceanic
Sat 03:43:00 PM 27.4153 -140.2080 67° East 468 539 38,000  Level FlightAware Transoceanic
Sat 03:44:00 PM 27.4660 -140.0728 67° East 468 539 38,000  Level FlightAware Transoceanic
Sat 03:45:00 PM 27.5166 -139.9374 67° East 468 539 38,000  Level FlightAware Transoceanic
Sat 03:46:00 PM 27.5671 -139.8019 67° East 468 539 38,000  Level FlightAware Transoceanic
Sat 03:47:00 PM 27.6174 -139.6663 67° East 468 539 38,000  Level FlightAware Transoceanic
Sat 03:48:00 PM 27.6676 -139.5306 67° East 468 539 38,000  Level FlightAware Transoceanic
Sat 03:49:00 PM 27.7177 -139.3947 67° East 468 539 38,000  Level FlightAware Transoceanic
Sat 03:50:00 PM 27.7676 -139.2587 67° East 468 539 38,000  Level FlightAware Transoceanic
Sat 03:51:00 PM 27.8174 -139.1226 68° East 468 539 38,000  Level FlightAware Transoceanic
Sat 03:52:00 PM 27.8671 -138.9864 68° East 468 539 38,000  Level FlightAware Transoceanic
Sat 03:53:00 PM 27.9167 -138.8500 68° East 468 539 38,000  Level FlightAware Transoceanic
Sat 03:54:00 PM 27.9667 -138.7117 68° East 468 539 38,000  Level FlightAware Transoceanic
Sat 03:55:00 PM 28.0166 -138.5733 68° East 468 539 38,000  Level FlightAware Transoceanic
Sat 03:56:00 PM 28.0664 -138.4347 68° East 468 539 38,000  Level FlightAware Transoceanic
Sat 03:56:15 PM 27.9167 -138.8500 68° East 485 558 38,000  Level Oakland Oceanic (ODAPS)
Sat 03:57:00 PM 28.1160 -138.2960 68° East 468 539 38,000  Level FlightAware Transoceanic
Sat 03:58:00 PM 28.1655 -138.1572 68° East 468 539 38,000  Level FlightAware Transoceanic
Sat 03:59:00 PM 28.2148 -138.0183 68° East 468 539 38,000  Level FlightAware Transoceanic
Sat 04:00:00 PM 28.2640 -137.8792 68° East 468 539 38,000  Level FlightAware Transoceanic
Sat 04:01:00 PM 28.3131 -137.7400 68° East 468 539 38,000  Level FlightAware Transoceanic
Sat 04:02:00 PM 28.3209 -137.7177 68° East 485 558 38,000  Level FlightAware Transoceanic
Sat 04:03:00 PM 28.3708 -137.5756 68° East 485 558 38,000  Level FlightAware Transoceanic
Sat 04:04:00 PM 28.4205 -137.4333 68° East 485 558 38,000  Level FlightAware Transoceanic
Sat 04:05:00 PM 28.4701 -137.2909 68° East 485 558 38,000  Level FlightAware Transoceanic
Sat 04:06:00 PM 28.5195 -137.1483 69° East 485 558 38,000  Level FlightAware Transoceanic
Sat 04:07:00 PM 28.5688 -137.0057 69° East 485 558 38,000  Level FlightAware Transoceanic
Sat 04:08:00 PM 28.6179 -136.8629 69° East 485 558 38,000  Level FlightAware Transoceanic
Sat 04:09:00 PM 28.6669 -136.7199 69° East 485 558 38,000  Level FlightAware Transoceanic
Sat 04:10:00 PM 28.7157 -136.5769 69° East 485 558 38,000  Level FlightAware Transoceanic
Sat 04:11:00 PM 28.7644 -136.4337 69° East 485 558 38,000  Level FlightAware Transoceanic
Sat 04:12:00 PM 28.8129 -136.2903 69° East 485 558 38,000  Level FlightAware Transoceanic
Sat 04:13:00 PM 28.8613 -136.1468 69° East 485 558 38,000  Level FlightAware Transoceanic
Sat 04:14:00 PM 28.9095 -136.0032 69° East 485 558 38,000  Level FlightAware Transoceanic
Sat 04:15:00 PM 28.9576 -135.8595 69° East 485 558 38,000  Level FlightAware Transoceanic
Sat 04:16:00 PM 29.0055 -135.7156 69° East 485 558 38,000  Level FlightAware Transoceanic
Sat 04:17:00 PM 29.0533 -135.5716 69° East 485 558 38,000  Level FlightAware Transoceanic
Sat 04:18:00 PM 29.1009 -135.4275 69° East 485 558 38,000  Level FlightAware Transoceanic
Sat 04:19:00 PM 29.1483 -135.2832 69° East 485 558 38,000  Level FlightAware Transoceanic
Sat 04:20:00 PM 29.1956 -135.1388 69° East 485 558 38,000  Level FlightAware Transoceanic
Sat 04:21:00 PM 29.2428 -134.9943 70° East 485 558 38,000  Level FlightAware Transoceanic
Sat 04:22:00 PM 29.2898 -134.8496 70° East 485 558 38,000  Level FlightAware Transoceanic
Sat 04:23:00 PM 29.3366 -134.7048 70° East 485 558 38,000  Level FlightAware Transoceanic
Sat 04:24:00 PM 29.3833 -134.5598 70° East 485 558 38,000  Level FlightAware Transoceanic
Sat 04:25:00 PM 29.4298 -134.4148 70° East 485 558 38,000  Level FlightAware Transoceanic
Sat 04:26:00 PM 29.4762 -134.2696 70° East 485 558 38,000  Level FlightAware Transoceanic
Sat 04:27:00 PM 29.5224 -134.1242 70° East 485 558 38,000  Level FlightAware Transoceanic
Sat 04:28:00 PM 29.5684 -133.9788 70° East 485 558 38,000  Level FlightAware Transoceanic
Sat 04:29:00 PM 29.6143 -133.8332 70° East 485 558 38,000  Level FlightAware Transoceanic
Sat 04:30:00 PM 29.6600 -133.6874 70° East 485 558 38,000  Level FlightAware Transoceanic
Sat 04:31:00 PM 29.7056 -133.5416 70° East 485 558 38,000  Level FlightAware Transoceanic
Sat 04:32:00 PM 29.7510 -133.3956 70° East 485 558 38,000  Level FlightAware Transoceanic
Sat 04:33:00 PM 29.7963 -133.2495 70° East 485 558 38,000  Level FlightAware Transoceanic
Sat 04:34:00 PM 29.8414 -133.1032 70° East 485 558 38,000  Level FlightAware Transoceanic
Sat 04:35:00 PM 29.8863 -132.9568 71° East 485 558 38,000  Level FlightAware Transoceanic
Sat 04:36:00 PM 29.9311 -132.8103 71° East 485 558 38,000  Level FlightAware Transoceanic
Sat 04:37:00 PM 29.9757 -132.6636 71° East 485 558 38,000  Level FlightAware Transoceanic
Sat 04:38:00 PM 30.0201 -132.5168 71° East 485 558 38,000  Level FlightAware Transoceanic
Sat 04:39:00 PM 30.0644 -132.3699 71° East 485 558 38,000  Level FlightAware Transoceanic
Sat 04:40:00 PM 30.1085 -132.2229 71° East 485 558 38,000  Level FlightAware Transoceanic
Sat 04:41:00 PM 30.1525 -132.0757 71° East 485 558 38,000  Level FlightAware Transoceanic
Sat 04:42:00 PM 30.1963 -131.9283 71° East 485 558 38,000  Level FlightAware Transoceanic
Sat 04:43:00 PM 30.2399 -131.7809 71° East 485 558 38,000  Level FlightAware Transoceanic
Sat 04:44:00 PM 30.2833 -131.6333 71° East 485 558 38,000  Level FlightAware Transoceanic
Sat 04:45:00 PM 30.3269 -131.4858 71° East 485 558 38,000  Level FlightAware Transoceanic
Sat 04:46:00 PM 30.3703 -131.3381 71° East 485 558 38,000  Level FlightAware Transoceanic
Sat 04:47:00 PM 30.4135 -131.1903 71° East 485 558 38,000  Level FlightAware Transoceanic
Sat 04:48:00 PM 30.4566 -131.0424 71° East 485 558 38,000  Level FlightAware Transoceanic
Sat 04:48:53 PM 30.2833 -131.6333 71° East 485 558 38,000  Level Oakland Oceanic (ODAPS)
Sat 04:49:00 PM 30.4995 -130.8943 71° East 485 558 38,000  Level FlightAware Transoceanic
Sat 04:50:00 PM 30.5422 -130.7461 72° East 485 558 38,000  Level FlightAware Transoceanic
Sat 04:51:00 PM 30.5848 -130.5978 72° East 485 558 38,000  Level FlightAware Transoceanic
Sat 04:52:00 PM 30.6272 -130.4494 72° East 485 558 38,000  Level FlightAware Transoceanic
Sat 04:53:00 PM 30.6694 -130.3008 72° East 485 558 38,000  Level FlightAware Transoceanic
Sat 04:54:00 PM 30.7114 -130.1521 72° East 485 558 38,000  Level FlightAware Transoceanic
Sat 04:55:00 PM 30.7533 -130.0032 72° East 485 558 38,000  Level FlightAware Transoceanic
Sat 04:56:00 PM 30.7950 -129.8543 72° East 485 558 38,000  Level FlightAware Transoceanic
Sat 04:57:00 PM 30.8366 -129.7052 72° East 485 558 38,000  Level FlightAware Transoceanic
Sat 04:58:00 PM 30.8780 -129.5559 72° East 485 558 38,000  Level FlightAware Transoceanic
Sat 04:59:00 PM 30.9192 -129.4066 72° East 485 558 38,000  Level FlightAware Transoceanic
Sat 05:00:00 PM 30.9602 -129.2571 72° East 485 558 38,000  Level FlightAware Transoceanic
Sat 05:01:00 PM 31.0010 -129.1075 72° East 485 558 38,000  Level FlightAware Transoceanic
Sat 05:02:00 PM 31.0417 -128.9577 72° East 485 558 38,000  Level FlightAware Transoceanic
Sat 05:03:00 PM 31.0822 -128.8079 73° East 485 558 38,000  Level FlightAware Transoceanic
Sat 05:04:00 PM 31.1226 -128.6579 73° East 485 558 38,000  Level FlightAware Transoceanic
Sat 05:05:00 PM 31.1627 -128.5078 73° East 485 558 38,000  Level FlightAware Transoceanic
Sat 05:06:00 PM 31.2027 -128.3575 73° East 485 558 38,000  Level FlightAware Transoceanic
Sat 05:07:00 PM 31.2425 -128.2071 73° East 485 558 38,000  Level FlightAware Transoceanic
Sat 05:08:00 PM 31.2822 -128.0566 73° East 485 558 38,000  Level FlightAware Transoceanic
Sat 05:09:00 PM 31.3217 -127.9060 73° East 485 558 38,000  Level FlightAware Transoceanic
Sat 05:10:00 PM 31.3609 -127.7552 73° East 485 558 38,000  Level FlightAware Transoceanic
Sat 05:11:00 PM 31.4001 -127.6043 73° East 485 558 38,000  Level FlightAware Transoceanic
Sat 05:12:00 PM 31.4390 -127.4533 73° East 485 558 38,000  Level FlightAware Transoceanic
Sat 05:13:00 PM 31.4778 -127.3022 73° East 485 558 38,000  Level FlightAware Transoceanic
Sat 05:14:00 PM 31.5163 -127.1509 73° East 485 558 38,000  Level FlightAware Transoceanic
Sat 05:15:00 PM 31.5547 -126.9996 73° East 485 558 38,000  Level FlightAware Transoceanic
Sat 05:16:00 PM 31.5930 -126.8481 74° East 485 558 38,000  Level FlightAware Transoceanic
Sat 05:17:00 PM 31.6310 -126.6964 74° East 485 558 38,000  Level FlightAware Transoceanic
Sat 05:18:00 PM 31.6689 -126.5447 74° East 485 558 38,000  Level FlightAware Transoceanic
Sat 05:19:00 PM 31.7066 -126.3928 74° East 485 558 38,000  Level FlightAware Transoceanic
Sat 05:20:00 PM 31.7441 -126.2408 74° East 485 558 38,000  Level FlightAware Transoceanic
Sat 05:21:00 PM 31.7814 -126.0887 74° East 485 558 38,000  Level FlightAware Transoceanic
Sat 05:22:00 PM 31.8185 -125.9364 74° East 485 558 38,000  Level FlightAware Transoceanic
Sat 05:23:00 PM 31.8555 -125.7840 74° East 485 558 38,000  Level FlightAware Transoceanic
Sat 05:24:00 PM 31.8923 -125.6316 74° East 485 558 38,000  Level FlightAware Transoceanic
Sat 05:25:00 PM 31.9289 -125.4789 74° East 485 558 38,000  Level FlightAware Transoceanic
Sat 05:26:00 PM 31.9653 -125.3262 74° East 485 558 38,000  Level FlightAware Transoceanic
Sat 05:27:00 PM 32.0015 -125.1733 74° East 485 558 38,000  Level FlightAware Transoceanic
Sat 05:28:00 PM 32.0376 -125.0204 75° East 485 558 38,000  Level FlightAware Transoceanic
Sat 05:29:00 PM 32.0734 -124.8673 75° East 485 558 38,000  Level FlightAware Transoceanic
Sat 05:30:00 PM 32.1091 -124.7141 75° East 485 558 38,000  Level FlightAware Transoceanic
Sat 05:31:00 PM 32.1446 -124.5607 75° East 485 558 38,000  Level FlightAware Transoceanic
Sat 05:32:00 PM 32.1799 -124.4073 75° East 485 558 38,000  Level FlightAware Transoceanic
Sat 05:33:00 PM 32.2151 -124.2537 75° East 485 558 38,000  Level FlightAware Transoceanic
Sat 05:34:00 PM 32.2500 -124.1000 77° East 485 558 38,000  Level FlightAware Transoceanic
Sat 05:35:00 PM 32.2815 -123.9432 77° East 485 558 38,000  Level FlightAware Transoceanic
Sat 05:36:00 PM 32.3129 -123.7862 77° East 485 558 38,000  Level FlightAware Transoceanic
Sat 05:37:00 PM 32.3440 -123.6292 77° East 485 558 38,000  Level FlightAware Transoceanic
Sat 05:37:17 PM 32.3008 -123.7600 68° East 480 552 38,000  Level Los Angeles Center
Sat 05:38:00 PM 32.3750 -123.4721 77° East 485 558 38,000  Level FlightAware Transoceanic
Sat 05:38:19 PM 32.3358 -123.6094 75° East 477 549 38,000  Level Los Angeles Center
Sat 05:39:00 PM 32.4057 -123.3148 77° East 485 558 38,000  Level FlightAware Transoceanic
Sat 05:39:21 PM 32.3944 -123.4317 69° East 488 562 38,000  Level Los Angeles Center
Sat 05:40:00 PM 32.4363 -123.1575 77° East 485 558 38,000  Level FlightAware Transoceanic
Sat 05:40:24 PM 32.4567 -123.2931 62° Northeast 482 555 38,000  Level Los Angeles Center
Sat 05:41:00 PM 32.4833 -123.0197 68° East  Level Estimated
Sat 05:41:26 PM 32.5142 -123.1506 64° Northeast 480 552 38,000  Level Los Angeles Center
Sat 05:42:00 PM 32.5301 -122.8818 68° East  Level Estimated
Sat 05:42:28 PM 32.5733 -123.0103 63° Northeast 478 550 38,000  Level Los Angeles Center
Sat 05:43:30 PM 32.6317 -122.8689 64° Northeast 478 550 38,000  Level Los Angeles Center
Sat 05:44:32 PM 32.6900 -122.7264 64° Northeast 480 552 38,000  Level Los Angeles Center
Sat 05:45:34 PM 32.7606 -122.5578 64° Northeast 478 550 38,000  Level Los Angeles Center
Sat 05:46:36 PM 32.8156 -122.4139 66° East 477 549 38,000  Level Los Angeles Center
Sat 05:47:38 PM 32.8736 -122.2742 64° Northeast 474 545 38,000  Level Los Angeles Center
Sat 05:48:40 PM 32.9306 -122.1328 64° Northeast 474 545 38,000  Level Los Angeles Center
Sat 05:49:42 PM 32.9914 -122.0028 61° Northeast 466 536 38,000  Level Los Angeles Center
Sat 05:50:44 PM 33.0581 -121.8333 65° Northeast 471 542 38,000  Level Los Angeles Center
Sat 05:51:46 PM 33.1133 -121.6917 65° Northeast 473 544 38,000  Level Los Angeles Center
Sat 05:52:48 PM 33.1692 -121.5517 64° Northeast 472 543 38,000  Level Los Angeles Center
Sat 05:53:50 PM 33.2233 -121.4111 65° Northeast 470 541 38,000  Level Los Angeles Center
Sat 05:55:04 PM 33.2789 -121.2706 65° Northeast 470 541 38,000  Level Los Angeles Center
Sat 05:56:07 PM 33.3444 -121.1011 65° Northeast 470 541 38,000 -240 Level Los Angeles Center
Sat 05:57:09 PM 33.4103 -120.9314 65° Northeast 471 542 37,500 -968 Descending Los Angeles Center
Sat 05:58:11 PM 33.4644 -120.7886 66° East 472 543 36,000 -1,790 Descending Los Angeles Center
Sat 05:59:13 PM 33.5172 -120.6508 65° Northeast 461 531 33,800 -2,371 Descending Los Angeles Center
Sat 06:00:15 PM 33.5708 -120.5117 65° Northeast 463 533 31,100 -2,565 Descending Los Angeles Center
Sat 06:01:17 PM 33.6228 -120.3733 66° East 461 531 28,500 -2,338 Descending Los Angeles Center
Sat 06:02:31 PM 33.6942 -120.1858 65° Northeast 445 512 25,800 -2,029 Descending Los Angeles Center
Sat 06:03:33 PM 33.7411 -120.0597 66° East 423 487 23,900 -1,935 Descending Los Angeles Center
Sat 06:04:35 PM 33.7894 -119.9333 65° Northeast 405 466 21,800 -1,984 Descending Los Angeles Center
Sat 06:05:37 PM 33.8333 -119.8144 66° East 392 451 19,800 -1,355 Descending Los Angeles Center
Sat 06:06:39 PM 33.8756 -119.7003 66° East 376 433 19,000 -387 Descending Los Angeles Center
Sat 06:07:41 PM 33.9175 -119.5875 66° East 371 427 19,000 -532 Level Los Angeles Center
Sat 06:08:43 PM 33.9603 -119.4733 66° East 372 428 17,900 -1,694 Descending Los Angeles Center
Sat 06:09:45 PM 34.0092 -119.3422 66° East 359 413 15,500 -2,098 Descending Los Angeles Center
Sat 06:10:46 PM 34.0486 -119.2361 66° East 348 400 13,600 -1,902 Descending Los Angeles Center
Sat 06:11:48 PM 34.0856 -119.1325 67° East 337 388 11,600 -1,258 Descending Los Angeles Center
Sat 06:12:50 PM 34.1106 -119.0319 73° East 316 364 11,000 -290 Descending Los Angeles Center
Sat 06:13:52 PM 34.0908 -118.9372 104° East 292 336 11,000 -290 Level Los Angeles Center
Sat 06:14:54 PM 34.0764 -118.8394 100° East 298 343 10,400 -484 Descending Los Angeles Center
Sat 06:15:56 PM 34.0575 -118.7336 102° East 289 333 10,000 -242 Descending Los Angeles Center
Sat 06:16:58 PM 34.0394 -118.6311 102° East 290 334 9,900 -726 Descending Los Angeles Center
Sat 06:18:00 PM 34.0247 -118.5369 101° East 286 329 8,500 -1,113 Descending Los Angeles Center
Sat 06:19:02 PM 34.0106 -118.4517 101° East 259 298 7,600 -1,065 Descending Los Angeles Center
Sat 06:20:04 PM 34.0231 -118.3753 79° East 241 277 6,300 -1,403 Descending Los Angeles Center
Sat 06:21:06 PM 34.0361 -118.2969 79° East 239 275 4,700 -1,073 Descending Los Angeles Center
Sat 06:22:07 PM 34.0494 -118.2258 77° East 224 258 4,100 -683 Descending Los Angeles Center
Sat 06:23:09 PM 34.0242 -118.1878 129° Southeast 192 221 3,300 -774 Descending Los Angeles Center

Login

Don't have an account? Register now (free) for customized features, flight alerts, and more!